Time;durP1;ratioP1;P1;durP2;ratioP2;P2;SDS_P1;SDS_P2;PMS_P1;PMS_P2;Temp;Humidity;BMP_temperature;BMP_pressure;BME280_temperature;BME280_humidity;BME280_pressure;Samples;Min_cycle;Max_cycle;Signal;HPM_P1;HPM_P2
2024/04/16 06:40:25;;;;;;;;;;;;;;;6.21;100.00;98782.25;5256327;27;20258;-89
2024/04/16 06:42:54;;;;;;;;;;;;;;;6.12;100.00;98786.13;5278964;27;19959;-90
2024/04/16 06:45:22;;;;;;;;;;;;;;;6.56;100.00;98767.66;5277695;27;19937;-90
2024/04/16 06:47:47;;;;;;;;;;;;;;;6.24;100.00;98772.50;5246918;27;19931;-89
2024/04/16 06:50:24;;;;;;;;;;;;;;;6.35;100.00;98761.50;5278540;27;20366;-90
2024/04/16 06:52:59;;;;;;;;;;;;;;;6.20;100.00;98763.00;5246064;27;19973;-89
2024/04/16 06:55:25;;;;;;;;;;;;;;;6.36;100.00;98748.28;5247861;27;19938;-90
2024/04/16 06:57:53;;;;;;;;;;;;;;;6.25;100.00;98754.91;5248107;27;20079;-91
2024/04/16 07:00:18;;;;;;;;;;;;;;;6.19;100.00;98742.91;5277092;27;20009;-90
2024/04/16 07:02:46;;;;;;;;;;;;;;;6.20;100.00;98744.59;5248018;27;19939;-89
2024/04/16 07:05:14;;;;;;;;;;;;;;;6.12;100.00;98733.53;5247911;27;19939;-89
2024/04/16 07:07:43;;;;;;;;;;;;;;;6.18;100.00;98743.81;5277092;27;19938;-89
2024/04/16 07:10:14;;;;;;;;;;;;;;;6.45;100.00;98741.78;5191356;27;20340;-90
2024/04/16 07:12:45;;;;;;;;;;;;;;;6.27;100.00;98738.16;5189853;27;20404;-89
2024/04/16 07:15:52;;;;;;;;;;;;;;;6.16;100.00;98737.75;5164016;27;19948;-90
2024/04/16 07:18:08;;;;;;;;;;;;;;;6.24;100.00;98735.66;5186798;27;19956;-91
2024/04/16 07:20:38;;;;;;;;;;;;;;;6.22;100.00;98742.75;5164698;27;19943;-89
2024/04/16 08:00:45;;;;;;;;;;;;;;;6.49;100.00;98731.97;5475666;21;20465;-88
2024/04/16 08:03:10;;;;;;;;;;;;;;;6.49;100.00;98737.22;5373192;26;19962;-89
2024/04/16 08:05:36;;;;;;;;;;;;;;;6.64;100.00;98733.09;5346417;26;19930;-89
2024/04/16 08:08:01;;;;;;;;;;;;;;;6.62;100.00;98717.38;5315485;26;20594;-88
2024/04/16 08:10:27;;;;;;;;;;;;;;;6.40;100.00;98730.59;5346349;26;19930;-87
2024/04/16 08:12:57;;;;;;;;;;;;;;;6.40;100.00;98727.09;5346139;26;20276;-90
2024/04/16 08:15:22;;;;;;;;;;;;;;;12.82;100.00;98703.84;5345087;26;19937;-89
2024/04/16 08:17:50;;;;;;;;;;;;;;;8.57;100.00;98716.09;5346253;26;19945;-87
2024/04/16 08:20:19;;;;;;;;;;;;;;;7.49;100.00;98732.75;5313841;26;19934;-92
2024/04/16 08:22:46;;;;;;;;;;;;;;;7.33;100.00;98730.00;5345764;26;20547;-88
2024/04/16 08:25:11;;;;;;;;;;;;;;;7.11;100.00;98726.63;5347736;26;20368;-86
2024/04/16 08:27:41;;;;;;;;;;;;;;;7.00;100.00;98730.59;5345365;26;19958;-90
2024/04/16 08:30:07;;;;;;;;;;;;;;;7.07;100.00;98733.84;5341020;26;19930;-84
2024/04/16 08:32:32;;;;;;;;;;;;;;;6.92;100.00;98730.09;5345536;26;19937;-89
2024/04/16 08:34:58;;;;;;;;;;;;;;;11.78;100.00;98717.81;5344616;26;19930;-87
2024/04/16 08:37:23;;;;;;;;;;;;;;;12.96;100.00;98704.69;5345337;26;20333;-92
2024/04/16 08:39:48;;;;;;;;;;;;;;;9.57;100.00;98719.56;5345761;26;19934;-91
2024/04/16 08:42:14;;;;;;;;;;;;;;;7.66;100.00;98726.72;5315376;26;19937;-88
2024/04/16 08:44:40;;;;;;;;;;;;;;;7.22;100.00;98737.53;5345236;26;19930;-88
2024/04/16 08:47:07;;;;;;;;;;;;;;;7.06;100.00;98735.59;5345137;26;19940;-87
2024/04/16 08:49:34;;;;;;;;;;;;;;;6.92;100.00;98735.34;5344277;26;19954;-86
2024/04/16 08:52:00;;;;;;;;;;;;;;;6.87;100.00;98732.94;5345712;26;19938;-87
2024/04/16 08:54:27;;;;;;;;;;;;;;;6.73;100.00;98724.78;5314755;26;19930;-88
2024/04/16 08:56:52;;;;;;;;;;;;;;;6.81;100.00;98735.84;5314722;26;19930;-87
2024/04/16 08:59:18;;;;;;;;;;;;;;;6.80;100.00;98741.19;5312049;26;20460;-87
2024/04/16 09:01:48;;;;;;;;;;;;;;;6.80;100.00;98728.88;5344757;26;19930;-88
2024/04/16 09:04:15;;;;;;;;;;;;;;;6.75;100.00;98741.38;5313749;26;19934;-87
2024/04/16 09:06:41;;;;;;;;;;;;;;;6.80;100.00;98738.56;5345285;26;19930;-87
2024/04/16 09:09:06;;;;;;;;;;;;;;;6.66;100.00;98745.25;5345294;26;20268;-87
2024/04/16 09:11:31;;;;;;;;;;;;;;;6.72;100.00;98738.88;5344400;26;19938;-87
2024/04/16 09:13:57;;;;;;;;;;;;;;;6.81;100.00;98745.50;5342931;26;19930;-88
2024/04/16 09:16:23;;;;;;;;;;;;;;;6.77;100.00;98746.59;5344633;26;19930;-89
2024/04/16 09:18:48;;;;;;;;;;;;;;;6.68;100.00;98737.28;5345094;26;19930;-85
2024/04/16 09:21:13;;;;;;;;;;;;;;;6.66;100.00;98754.94;5344683;26;19934;-87
2024/04/16 09:23:38;;;;;;;;;;;;;;;6.62;100.00;98748.97;5343757;26;19958;-87
2024/04/16 09:26:37;;;;;;;;;;;;;;;6.65;100.00;98753.22;5345015;26;19930;-87
2024/04/16 09:29:01;;;;;;;;;;;;;;;6.68;100.00;98759.19;5343128;26;19934;-89
2024/04/16 09:31:27;;;;;;;;;;;;;;;6.61;100.00;98759.56;5344229;26;20434;-88
2024/04/16 09:34:02;;;;;;;;;;;;;;;6.64;100.00;98757.66;5346053;26;19930;-88
2024/04/16 09:36:27;;;;;;;;;;;;;;;10.49;100.00;98749.66;5344574;26;19958;-89
2024/04/16 09:38:53;;;;;;;;;;;;;;;7.69;100.00;98749.41;5344928;26;20357;-87
2024/04/16 09:41:27;;;;;;;;;;;;;;;7.02;100.00;98772.66;5345048;26;19930;-93
2024/04/16 09:43:53;;;;;;;;;;;;;;;7.00;100.00;98759.56;5312848;26;20260;-87
2024/04/16 09:46:19;;;;;;;;;;;;;;;6.77;100.00;98772.91;5345582;26;19930;-88
2024/04/16 09:48:46;;;;;;;;;;;;;;;6.77;100.00;98765.03;5317539;26;19996;-88
2024/04/16 09:51:12;;;;;;;;;;;;;;;6.78;100.00;98756.19;5346362;26;19930;-88
2024/04/16 09:53:39;;;;;;;;;;;;;;;6.71;100.00;98753.81;5347578;26;20326;-89
2024/04/16 09:56:05;;;;;;;;;;;;;;;6.71;100.00;98760.84;5347158;26;20057;-88
2024/04/16 09:58:35;;;;;;;;;;;;;;;6.68;100.00;98764.47;5347099;26;19930;-87
2024/04/16 10:01:01;;;;;;;;;;;;;;;6.80;100.00;98755.19;5346372;26;19999;-88
2024/04/16 10:03:26;;;;;;;;;;;;;;;6.82;100.00;98758.63;5347477;26;20734;-88
2024/04/16 10:05:53;;;;;;;;;;;;;;;6.69;100.00;98754.81;5346985;26;19936;-87
2024/04/16 10:08:19;;;;;;;;;;;;;;;6.72;100.00;98755.53;5346611;26;19942;-88
2024/04/16 10:10:45;;;;;;;;;;;;;;;6.79;100.00;98753.47;5347489;26;20007;-88
2024/04/16 10:13:12;;;;;;;;;;;;;;;6.94;100.00;98761.63;5346482;26;19941;-89
2024/04/16 10:15:37;;;;;;;;;;;;;;;6.72;100.00;98760.78;5346325;26;19981;-88
2024/04/16 10:18:03;;;;;;;;;;;;;;;6.65;100.00;98761.13;5346217;26;19934;-89
2024/04/16 10:20:29;;;;;;;;;;;;;;;6.73;100.00;98757.25;5347564;26;19937;-88
2024/04/16 10:22:55;;;;;;;;;;;;;;;6.70;100.00;98757.38;5347563;26;19978;-89
2024/04/16 10:25:30;;;;;;;;;;;;;;;6.61;100.00;98755.13;5374417;26;19936;-87
2024/04/16 10:28:02;;;;;;;;;;;;;;;6.66;100.00;98755.78;5346425;26;19949;-89
2024/04/16 10:30:31;;;;;;;;;;;;;;;6.59;100.00;98759.63;5346086;26;19941;-88
2024/04/16 10:32:59;;;;;;;;;;;;;;;6.67;100.00;98754.88;5344656;26;19937;-92
2024/04/16 10:35:25;;;;;;;;;;;;;;;6.70;100.00;98762.66;5346064;26;19930;-89
2024/04/16 10:37:51;;;;;;;;;;;;;;;6.69;100.00;98760.09;5346006;26;19941;-91
2024/04/16 10:40:58;;;;;;;;;;;;;;;6.87;100.00;98748.72;5347141;26;20312;-89
2024/04/16 10:43:26;;;;;;;;;;;;;;;6.80;100.00;98743.81;5249885;26;19999;-89
2024/04/16 10:45:52;;;;;;;;;;;;;;;6.88;100.00;98747.81;5315108;26;19930;-89
2024/04/16 10:48:18;;;;;;;;;;;;;;;6.73;100.00;98751.09;5347021;26;19936;-90
2024/04/16 10:50:43;;;;;;;;;;;;;;;7.02;100.00;98749.84;5373910;26;19930;-88
2024/04/16 10:53:13;;;;;;;;;;;;;;;6.92;100.00;98738.00;5346377;26;19933;-89
2024/04/16 10:55:39;;;;;;;;;;;;;;;6.80;100.00;98751.72;5346229;26;19987;-87
2024/04/16 10:58:07;;;;;;;;;;;;;;;6.93;100.00;98739.72;5346309;26;19936;-88
2024/04/16 11:00:32;;;;;;;;;;;;;;;6.89;100.00;98730.22;5314661;26;19930;-88
2024/04/16 11:02:58;;;;;;;;;;;;;;;6.82;100.00;98739.34;5346606;26;20254;-88
2024/04/16 11:05:24;;;;;;;;;;;;;;;6.80;100.00;98746.47;5344771;26;19938;-88
2024/04/16 11:07:50;;;;;;;;;;;;;;;6.80;100.00;98735.94;5316112;26;19937;-84
2024/04/16 11:10:15;;;;;;;;;;;;;;;6.95;100.00;98729.94;5316382;26;19942;-88
2024/04/16 11:12:40;;;;;;;;;;;;;;;7.05;100.00;98730.38;5346773;26;19930;-90
2024/04/16 11:15:06;;;;;;;;;;;;;;;6.95;100.00;98751.03;5316195;26;19956;-87
2024/04/16 11:17:31;;;;;;;;;;;;;;;6.96;100.00;98755.38;5346834;26;19999;-88
2024/04/16 11:19:57;;;;;;;;;;;;;;;6.84;100.00;98779.59;5346151;26;19930;-88
2024/04/16 11:22:23;;;;;;;;;;;;;;;6.81;100.00;98756.03;5346814;26;20377;-86
2024/04/16 11:24:49;;;;;;;;;;;;;;;6.71;100.00;98745.06;5345662;26;19930;-87
2024/04/16 11:27:17;;;;;;;;;;;;;;;6.95;100.00;98751.03;5346539;26;20365;-87
2024/04/16 11:29:49;;;;;;;;;;;;;;;6.90;100.00;98761.75;5345319;26;20261;-86
2024/04/16 11:32:23;;;;;;;;;;;;;;;6.81;100.00;98763.94;5346520;26;20357;-88
2024/04/16 11:34:48;;;;;;;;;;;;;;;6.68;100.00;98764.47;5344731;26;19961;-86
2024/04/16 11:37:14;;;;;;;;;;;;;;;6.77;100.00;98762.38;5345810;26;19989;-86
2024/04/16 11:39:49;;;;;;;;;;;;;;;6.82;100.00;98760.41;5346868;26;19930;-86
2024/04/16 11:42:14;;;;;;;;;;;;;;;6.86;100.00;98756.69;5345862;26;19937;-86
2024/04/16 11:44:40;;;;;;;;;;;;;;;6.81;100.00;98748.16;5345179;26;19931;-86
2024/04/16 11:47:09;;;;;;;;;;;;;;;6.86;100.00;98761.97;5315869;26;20435;-86
2024/04/16 11:49:35;;;;;;;;;;;;;;;6.93;100.00;98742.34;5315884;26;19937;-86
2024/04/16 11:52:01;;;;;;;;;;;;;;;6.88;100.00;98736.44;5346083;26;19958;-86
2024/04/16 11:54:26;;;;;;;;;;;;;;;6.83;100.00;98747.16;5315139;26;20274;-86
2024/04/16 11:56:52;;;;;;;;;;;;;;;6.92;100.00;98730.09;5315113;26;19964;-86
2024/04/16 11:59:17;;;;;;;;;;;;;;;6.79;100.00;98740.31;5314278;26;19929;-87
2024/04/16 12:01:42;;;;;;;;;;;;;;;6.94;100.00;98769.53;5315560;26;19965;-86
2024/04/16 12:04:07;;;;;;;;;;;;;;;7.03;100.00;98751.53;5315059;26;19958;-85
2024/04/16 12:06:33;;;;;;;;;;;;;;;6.99;100.00;98754.38;5346303;26;19934;-86
2024/04/16 12:08:58;;;;;;;;;;;;;;;6.91;100.00;98752.94;5334054;26;19930;-86
2024/04/16 12:11:23;;;;;;;;;;;;;;;6.94;100.00;98744.06;5346112;26;19958;-86
2024/04/16 12:13:48;;;;;;;;;;;;;;;6.83;100.00;98752.44;5344143;26;19930;-86
2024/04/16 12:16:13;;;;;;;;;;;;;;;6.86;100.00;98756.69;5315072;26;20003;-86
2024/04/16 12:18:39;;;;;;;;;;;;;;;6.80;100.00;98755.19;5315453;26;19937;-85
2024/04/16 12:21:04;;;;;;;;;;;;;;;6.76;100.00;98748.34;5345464;26;19930;-85
2024/04/16 12:23:31;;;;;;;;;;;;;;;6.76;100.00;98761.50;5314972;26;19937;-86
2024/04/16 12:25:56;;;;;;;;;;;;;;;6.87;100.00;98754.00;5315291;26;19937;-86
2024/04/16 12:28:22;;;;;;;;;;;;;;;6.93;100.00;98742.34;5315182;26;19938;-87
2024/04/16 12:30:47;;;;;;;;;;;;;;;7.04;100.00;98724.28;5313736;26;20357;-87
2024/04/16 12:33:12;;;;;;;;;;;;;;;6.88;100.00;98744.34;5314879;26;19938;-86
2024/04/16 12:35:37;;;;;;;;;;;;;;;6.93;100.00;98750.25;5314760;26;20004;-87
2024/04/16 12:38:04;;;;;;;;;;;;;;;7.06;100.00;98724.22;5315106;26;19930;-85
2024/04/16 12:40:29;;;;;;;;;;;;;;;7.01;100.00;98728.84;5313961;26;20327;-87
2024/04/16 12:42:54;;;;;;;;;;;;;;;7.09;100.00;98730.19;5314946;26;20017;-86
2024/04/16 12:45:19;;;;;;;;;;;;;;;6.93;100.00;98729.19;5313365;26;20361;-87
2024/04/16 12:47:45;;;;;;;;;;;;;;;6.98;100.00;98726.34;5315269;26;19934;-86
2024/04/16 12:50:10;;;;;;;;;;;;;;;7.10;100.00;98731.06;5345142;26;19930;-87
2024/04/16 12:52:35;;;;;;;;;;;;;;;7.11;100.00;98742.44;5345387;26;19930;-86
2024/04/16 12:55:00;;;;;;;;;;;;;;;7.03;100.00;98733.09;5345541;26;20284;-86
2024/04/16 12:57:26;;;;;;;;;;;;;;;7.01;100.00;98748.13;5344907;26;19934;-85
2024/04/16 12:59:52;;;;;;;;;;;;;;;7.05;100.00;98747.06;5313322;26;19995;-86
2024/04/16 13:02:17;;;;;;;;;;;;;;;6.95;100.00;98727.31;5345229;26;20364;-86
2024/04/16 13:04:42;;;;;;;;;;;;;;;6.94;100.00;98730.91;5371982;26;19930;-86
2024/04/16 13:07:08;;;;;;;;;;;;;;;6.95;100.00;98726.47;5315039;26;20427;-86
2024/04/16 13:09:33;;;;;;;;;;;;;;;6.98;100.00;98719.28;5314757;26;19934;-87
2024/04/16 13:11:58;;;;;;;;;;;;;;;6.90;100.00;98714.34;5345071;26;19930;-85
2024/04/16 13:14:26;;;;;;;;;;;;;;;7.09;100.00;98718.81;5313574;26;19930;-90
2024/04/16 13:16:53;;;;;;;;;;;;;;;7.01;100.00;98715.66;5344715;26;19937;-89
2024/04/16 13:19:19;;;;;;;;;;;;;;;7.00;100.00;98706.88;5315875;26;19930;-87
2024/04/16 13:21:45;;;;;;;;;;;;;;;7.22;100.00;98704.13;5351844;26;19937;-89
2024/04/16 13:24:10;;;;;;;;;;;;;;;7.16;100.00;98709.69;5320975;26;19930;-89
2024/04/16 13:26:36;;;;;;;;;;;;;;;7.13;100.00;98701.06;5352280;26;19930;-88
2024/04/16 13:29:02;;;;;;;;;;;;;;;7.20;100.00;98697.25;5319762;26;19983;-88
2024/04/16 13:31:28;;;;;;;;;;;;;;;7.09;100.00;98708.25;5321302;26;20336;-86
2024/04/16 13:33:53;;;;;;;;;;;;;;;7.14;100.00;98702.78;5321632;26;19930;-87
2024/04/16 13:36:18;;;;;;;;;;;;;;;7.15;100.00;98702.72;5321662;26;19983;-86
2024/04/16 13:38:46;;;;;;;;;;;;;;;7.09;100.00;98701.22;5351459;26;19930;-89
2024/04/16 13:41:12;;;;;;;;;;;;;;;6.95;100.00;98693.09;5351454;26;20273;-90
2024/04/16 13:43:38;;;;;;;;;;;;;;;6.97;100.00;98693.84;5319895;26;19930;-88
2024/04/16 13:46:03;;;;;;;;;;;;;;;7.05;100.00;98689.13;5351292;26;19937;-87
2024/04/16 13:48:29;;;;;;;;;;;;;;;7.14;100.00;98684.34;5351874;26;19930;-87
2024/04/16 13:50:54;;;;;;;;;;;;;;;7.14;100.00;98698.38;5351002;26;19941;-86
2024/04/16 13:53:19;;;;;;;;;;;;;;;7.16;100.00;98698.28;5351510;26;19930;-89
2024/04/16 13:55:44;;;;;;;;;;;;;;;7.17;100.00;98707.91;5351867;26;19937;-87
2024/04/16 13:58:10;;;;;;;;;;;;;;;7.11;100.00;98702.94;5351968;26;19941;-87
2024/04/16 14:00:35;;;;;;;;;;;;;;;6.98;100.00;98690.31;5319129;26;20356;-87
2024/04/16 14:03:00;;;;;;;;;;;;;;;7.31;100.00;98696.72;5351272;26;19999;-85
2024/04/16 14:05:41;;;;;;;;;;;;;;;7.13;100.00;98686.09;5320751;26;19930;-90
2024/04/16 14:08:06;;;;;;;;;;;;;;;7.09;100.00;98669.59;5379310;26;19934;-87
2024/04/16 14:10:32;;;;;;;;;;;;;;;7.31;100.00;98663.34;5320631;26;20551;-87
2024/04/16 14:12:57;;;;;;;;;;;;;;;7.19;100.00;98658.63;5321111;26;20265;-87
2024/04/16 14:15:22;;;;;;;;;;;;;;;7.19;100.00;98642.84;5349716;26;19930;-87
2024/04/16 14:17:48;;;;;;;;;;;;;;;7.19;100.00;98648.09;5350994;26;19930;-90
2024/04/16 14:20:13;;;;;;;;;;;;;;;7.18;100.00;98668.34;5320754;26;20378;-89
2024/04/16 14:22:38;;;;;;;;;;;;;;;7.33;100.00;98645.66;5350632;26;19934;-87
2024/04/16 14:25:04;;;;;;;;;;;;;;;7.28;100.00;98643.25;5350680;26;19930;-87
2024/04/16 14:27:29;;;;;;;;;;;;;;;7.23;100.00;98647.03;5349542;26;20336;-89
2024/04/16 14:29:54;;;;;;;;;;;;;;;7.16;100.00;98659.63;5349691;26;19930;-88
2024/04/16 14:32:20;;;;;;;;;;;;;;;7.09;100.00;98663.50;5346772;26;19937;-88
2024/04/16 14:34:45;;;;;;;;;;;;;;;7.29;100.00;98654.63;5347134;26;20365;-89
2024/04/16 14:37:10;;;;;;;;;;;;;;;7.27;100.00;98680.22;5347415;26;19937;-89
2024/04/16 14:39:35;;;;;;;;;;;;;;;7.33;100.00;98672.03;5316855;26;20000;-87
2024/04/16 14:42:01;;;;;;;;;;;;;;;7.31;100.00;98668.59;5316800;26;19930;-89
2024/04/16 14:44:27;;;;;;;;;;;;;;;7.35;100.00;98667.53;5346092;26;19930;-89
2024/04/16 14:46:54;;;;;;;;;;;;;;;7.23;100.00;98686.56;5315972;26;20371;-88
2024/04/16 14:49:27;;;;;;;;;;;;;;;7.13;100.00;98680.00;5316724;26;20362;-89
2024/04/16 14:51:55;;;;;;;;;;;;;;;7.09;100.00;98677.50;5316374;26;19937;-92
2024/04/16 14:54:20;;;;;;;;;;;;;;;7.39;100.00;98671.72;5347100;26;19970;-87
2024/04/16 14:56:45;;;;;;;;;;;;;;;7.12;100.00;98673.88;5345962;26;19938;-88
2024/04/16 14:59:11;;;;;;;;;;;;;;;7.38;100.00;98672.66;5315450;26;19959;-88
2024/04/16 15:01:36;;;;;;;;;;;;;;;7.20;100.00;98684.06;5309559;27;19937;-91
2024/04/16 15:04:01;;;;;;;;;;;;;;;7.21;100.00;98673.47;5310266;26;20432;-90
2024/04/16 15:06:26;;;;;;;;;;;;;;;7.29;100.00;98675.72;5312076;26;19930;-88
2024/04/16 15:08:55;;;;;;;;;;;;;;;7.19;100.00;98670.03;5309992;26;19935;-90
2024/04/16 15:11:20;;;;;;;;;;;;;;;7.10;100.00;98673.13;5309311;26;19931;-90
2024/04/16 15:13:46;;;;;;;;;;;;;;;7.46;100.00;98667.00;5310768;26;19938;-90
2024/04/16 15:16:12;;;;;;;;;;;;;;;7.32;100.00;98664.19;5312202;27;20329;-89
2024/04/16 15:18:41;;;;;;;;;;;;;;;7.35;100.00;98659.63;5311136;26;19939;-90
2024/04/16 15:21:09;;;;;;;;;;;;;;;7.24;100.00;98659.28;5311172;27;20255;-90
2024/04/16 15:23:34;;;;;;;;;;;;;;;7.31;100.00;98657.19;5312320;26;19951;-86
2024/04/16 15:26:02;;;;;;;;;;;;;;;7.14;100.00;98650.94;5309049;26;19938;-90
2024/04/16 15:28:28;;;;;;;;;;;;;;;7.54;100.00;98656.94;5308754;26;19931;-84
2024/04/16 15:30:53;;;;;;;;;;;;;;;7.32;100.00;98659.75;5308676;26;20358;-87
2024/04/16 15:33:18;;;;;;;;;;;;;;;7.45;100.00;98655.63;5312355;26;19963;-90
2024/04/16 15:35:47;;;;;;;;;;;;;;;7.37;100.00;98649.88;5311989;26;19957;-89
2024/04/16 15:38:13;;;;;;;;;;;;;;;7.27;100.00;98660.00;5339007;26;19939;-89
2024/04/16 15:40:38;;;;;;;;;;;;;;;7.16;100.00;98650.88;5310237;26;19931;-88
2024/04/16 15:43:15;;;;;;;;;;;;;;;7.24;100.00;98648.72;5311827;26;19936;-90
2024/04/16 15:45:40;;;;;;;;;;;;;;;7.36;100.00;98645.53;5337288;26;19938;-90
2024/04/16 15:48:06;;;;;;;;;;;;;;;7.52;100.00;98650.06;5310368;26;19931;-90
2024/04/16 15:50:32;;;;;;;;;;;;;;;7.26;100.00;98647.75;5312095;26;19934;-90
2024/04/16 15:52:57;;;;;;;;;;;;;;;7.22;100.00;98648.81;5310218;26;19931;-89
2024/04/16 15:55:23;;;;;;;;;;;;;;;7.16;100.00;98657.00;5309955;26;20378;-90
2024/04/16 15:57:48;;;;;;;;;;;;;;;7.30;100.00;98647.59;5310025;27;19958;-89
2024/04/16 16:00:15;;;;;;;;;;;;;;;7.26;100.00;98649.53;5318074;26;19934;-90
2024/04/16 16:02:40;;;;;;;;;;;;;;;7.32;100.00;98654.47;5346335;26;20310;-84
2024/04/16 16:05:11;;;;;;;;;;;;;;;7.25;100.00;98656.56;5346259;26;19930;-86
2024/04/16 16:07:37;;;;;;;;;;;;;;;7.28;100.00;98652.94;5315158;26;19962;-88
2024/04/16 16:10:06;;;;;;;;;;;;;;;7.34;100.00;98657.94;5346144;26;19942;-88
2024/04/16 16:12:31;;;;;;;;;;;;;;;7.44;100.00;98659.19;5345203;26;19941;-90
2024/04/16 16:14:59;;;;;;;;;;;;;;;7.51;100.00;98664.16;5343889;26;20262;-91
2024/04/16 16:17:24;;;;;;;;;;;;;;;7.45;100.00;98703.06;5346033;26;19937;-88
2024/04/16 16:19:49;;;;;;;;;;;;;;;7.39;100.00;98724.44;5344261;26;19930;-89
2024/04/16 16:22:19;;;;;;;;;;;;;;;7.46;100.00;98738.19;5315282;26;19980;-88
2024/04/16 16:24:45;;;;;;;;;;;;;;;7.37;100.00;98694.69;5315173;26;20977;-88
2024/04/16 16:27:12;;;;;;;;;;;;;;;7.21;100.00;98691.03;5344685;26;19937;-88
2024/04/16 16:29:37;;;;;;;;;;;;;;;7.21;100.00;98693.66;5344230;26;20000;-88
2024/04/16 16:32:03;;;;;;;;;;;;;;;7.20;100.00;98689.34;5315109;26;20412;-89
2024/04/16 16:34:29;;;;;;;;;;;;;;;7.19;100.00;98691.09;5345366;26;19961;-92
2024/04/16 16:36:54;;;;;;;;;;;;;;;7.11;100.00;98681.84;5345747;26;19957;-88
2024/04/16 16:39:19;;;;;;;;;;;;;;;7.09;100.00;98685.41;5315248;26;19942;-89
2024/04/16 16:41:45;;;;;;;;;;;;;;;7.23;100.00;98715.53;5314857;26;19934;-88
2024/04/16 16:44:10;;;;;;;;;;;;;;;7.23;100.00;98712.91;5311950;26;19937;-89
2024/04/16 16:46:36;;;;;;;;;;;;;;;7.26;100.00;98718.03;5345715;26;19930;-89
2024/04/16 16:49:01;;;;;;;;;;;;;;;7.26;100.00;98725.94;5345683;26;20269;-89
2024/04/16 16:51:26;;;;;;;;;;;;;;;7.22;100.00;98724.38;5345389;26;19930;-89
2024/04/16 16:53:55;;;;;;;;;;;;;;;7.16;100.00;98735.19;5313005;26;19930;-88
2024/04/16 16:56:20;;;;;;;;;;;;;;;7.16;100.00;98727.28;5345402;26;20273;-88
2024/04/16 16:58:46;;;;;;;;;;;;;;;7.15;100.00;98730.81;5313612;26;19930;-88
2024/04/16 17:01:11;;;;;;;;;;;;;;;7.18;100.00;98730.69;5314957;26;19937;-87
2024/04/16 17:03:37;;;;;;;;;;;;;;;7.12;100.00;98726.56;5314964;26;19934;-88
2024/04/16 17:06:02;;;;;;;;;;;;;;;7.16;100.00;98722.00;5314833;26;20269;-88
2024/04/16 17:08:27;;;;;;;;;;;;;;;7.19;100.00;98729.78;5314980;26;19930;-89
2024/04/16 17:10:56;;;;;;;;;;;;;;;7.16;100.00;98732.53;5313258;26;20025;-89
2024/04/16 17:13:21;;;;;;;;;;;;;;;7.16;100.00;98733.38;5345201;26;19981;-88
2024/04/16 17:15:48;;;;;;;;;;;;;;;7.17;100.00;98729.84;5343783;26;20361;-89
2024/04/16 17:18:14;;;;;;;;;;;;;;;7.24;100.00;98740.94;5344039;26;19945;-90
2024/04/16 17:20:39;;;;;;;;;;;;;;;7.14;100.00;98744.94;5345022;26;20376;-90
2024/04/16 17:23:04;;;;;;;;;;;;;;;7.18;100.00;98735.97;5345114;26;19936;-88
2024/04/16 17:25:46;;;;;;;;;;;;;;;;;;;;;
2024/04/16 17:28:17;;;;;;;;;;;;;;;7.18;100.00;98746.50;5345367;26;19934;-92
2024/04/16 17:30:44;;;;;;;;;;;;;;;7.08;100.00;98752.22;5343420;26;19938;-86
2024/04/16 17:33:11;;;;;;;;;;;;;;;7.08;100.00;98762.75;5344956;26;19958;-89
2024/04/16 17:35:41;;;;;;;;;;;;;;;7.12;100.00;98758.19;5292780;26;19937;-89
2024/04/16 17:38:07;;;;;;;;;;;;;;;7.12;100.00;98757.34;5314314;26;19942;-89
2024/04/16 17:40:32;;;;;;;;;;;;;;;7.15;100.00;98752.78;5344929;26;20421;-91
2024/04/16 17:42:57;;;;;;;;;;;;;;;7.16;100.00;98756.25;5314482;26;19981;-89
2024/04/16 17:45:23;;;;;;;;;;;;;;;7.12;100.00;98747.66;5313651;26;19934;-90
2024/04/16 17:47:48;;;;;;;;;;;;;;;7.13;100.00;98753.75;5344617;26;20000;-90
2024/04/16 17:50:13;;;;;;;;;;;;;;;7.07;100.00;98758.38;5314332;26;19930;-90
2024/04/16 17:52:42;;;;;;;;;;;;;;;7.09;100.00;98763.59;5344778;26;19930;-90
2024/04/16 17:55:08;;;;;;;;;;;;;;;7.08;100.00;98757.47;5344552;26;20002;-90
2024/04/16 17:57:36;;;;;;;;;;;;;;;7.11;100.00;98766.16;5344355;26;19930;-89
2024/04/16 18:00:02;;;;;;;;;;;;;;;7.09;100.00;98772.34;5343460;26;19941;-90
2024/04/16 18:02:27;;;;;;;;;;;;;;;7.14;100.00;98766.03;5313935;26;19929;-91
2024/04/16 18:04:52;;;;;;;;;;;;;;;7.08;100.00;98768.00;5313724;26;20000;-92
2024/04/16 18:07:17;;;;;;;;;;;;;;;7.11;100.00;98776.69;5315969;26;19930;-92
2024/04/16 18:10:12;;;;;;;;;;;;;;;7.17;100.00;98784.31;5347722;26;20362;-90
2024/04/16 18:12:37;;;;;;;;;;;;;;;7.12;100.00;98783.69;5315860;26;19931;-91
2024/04/16 18:15:03;;;;;;;;;;;;;;;7.12;100.00;98788.94;5315443;26;20282;-90
2024/04/16 18:17:28;;;;;;;;;;;;;;;7.10;100.00;98789.00;5346287;26;19937;-90
2024/04/16 18:19:54;;;;;;;;;;;;;;;7.08;100.00;98794.34;5316766;26;20358;-89
2024/04/16 18:22:19;;;;;;;;;;;;;;;7.09;100.00;98803.94;5315817;26;19939;-90
2024/04/16 18:24:46;;;;;;;;;;;;;;;7.63;100.00;98798.03;5316276;26;20423;-90
2024/04/16 18:27:14;;;;;;;;;;;;;;;7.27;100.00;98804.06;5315853;26;19938;-86
2024/04/16 18:29:42;;;;;;;;;;;;;;;7.25;100.00;98805.91;5344866;26;19930;-89
2024/04/16 18:32:08;;;;;;;;;;;;;;;7.18;100.00;98813.25;5316680;26;20261;-82
2024/04/16 18:34:35;;;;;;;;;;;;;;;7.20;100.00;98807.91;5347345;26;19937;-89
2024/04/16 18:37:08;;;;;;;;;;;;;;;7.15;100.00;98816.00;5346049;26;19963;-85
2024/04/16 18:39:34;;;;;;;;;;;;;;;7.25;100.00;98816.44;5315548;26;19941;-87
2024/04/16 18:41:59;;;;;;;;;;;;;;;7.19;100.00;98814.09;5347177;26;20000;-87
2024/04/16 18:44:24;;;;;;;;;;;;;;;7.20;100.00;98814.00;5315354;26;19937;-87
2024/04/16 18:46:50;;;;;;;;;;;;;;;7.21;100.00;98820.13;5347266;26;20298;-86
2024/04/16 18:49:16;;;;;;;;;;;;;;;7.19;100.00;98816.72;5316696;26;20001;-83
2024/04/16 18:51:41;;;;;;;;;;;;;;;7.19;100.00;98835.16;5347473;26;20327;-87
2024/04/16 18:54:06;;;;;;;;;;;;;;;7.27;100.00;98830.41;5316498;26;19933;-88
2024/04/16 18:56:31;;;;;;;;;;;;;;;7.24;100.00;98831.41;5346821;26;19930;-87
2024/04/16 18:58:57;;;;;;;;;;;;;;;7.27;100.00;98840.94;5314882;26;20613;-87
2024/04/16 19:01:22;;;;;;;;;;;;;;;7.20;100.00;98840.38;5346974;26;20016;-89
2024/04/16 19:03:48;;;;;;;;;;;;;;;7.26;100.00;98840.09;5346752;26;19937;-88
2024/04/16 19:06:14;;;;;;;;;;;;;;;7.24;100.00;98844.59;5346561;26;20350;-88
2024/04/16 19:08:39;;;;;;;;;;;;;;;7.26;100.00;98839.25;5346404;26;20002;-88
2024/04/16 19:11:04;;;;;;;;;;;;;;;7.19;100.00;98843.06;5346825;26;19938;-85
2024/04/16 19:13:31;;;;;;;;;;;;;;;7.24;100.00;98846.34;5316098;26;20008;-90
2024/04/16 19:16:01;;;;;;;;;;;;;;;7.20;100.00;98844.78;5314614;26;19930;-89
2024/04/16 19:18:27;;;;;;;;;;;;;;;7.23;100.00;98850.78;5345688;26;19937;-86
2024/04/16 19:20:53;;;;;;;;;;;;;;;7.18;100.00;98851.88;5345388;26;20268;-87
2024/04/16 19:23:22;;;;;;;;;;;;;;;7.13;100.00;98849.44;5346368;26;19930;-88
2024/04/16 19:25:47;;;;;;;;;;;;;;;7.04;100.00;98848.06;5316048;26;19930;-86
2024/04/16 19:28:12;;;;;;;;;;;;;;;7.05;100.00;98855.06;5315873;26;19957;-87
2024/04/16 19:30:38;;;;;;;;;;;;;;;6.94;100.00;98849.41;5345185;26;20246;-88
2024/04/16 19:33:03;;;;;;;;;;;;;;;6.93;100.00;98850.31;5346458;26;20258;-88
2024/04/16 19:35:28;;;;;;;;;;;;;;;6.93;100.00;98847.69;5346529;26;20003;-88
2024/04/16 19:37:53;;;;;;;;;;;;;;;6.87;100.00;98850.59;5314695;26;19965;-88
2024/04/16 19:40:19;;;;;;;;;;;;;;;6.83;100.00;98848.97;5346318;26;19930;-87
2024/04/16 19:42:45;;;;;;;;;;;;;;;6.87;100.00;98850.59;5346499;26;19930;-85
2024/04/16 19:45:10;;;;;;;;;;;;;;;6.87;100.00;98853.22;5344587;26;20005;-90
2024/04/16 19:47:35;;;;;;;;;;;;;;;6.76;100.00;98860.72;5346509;26;19934;-87
2024/04/16 19:50:00;;;;;;;;;;;;;;;6.72;100.00;98854.72;5346374;26;19930;-87
2024/04/16 19:52:26;;;;;;;;;;;;;;;6.71;100.00;98858.28;5346505;26;19942;-88
2024/04/16 19:54:51;;;;;;;;;;;;;;;6.73;100.00;98864.31;5346349;26;19934;-88
2024/04/16 19:57:16;;;;;;;;;;;;;;;6.64;100.00;98862.94;5346450;26;20309;-88
2024/04/16 19:59:41;;;;;;;;;;;;;;;6.66;100.00;98866.34;5344730;26;19936;-87
2024/04/16 20:02:07;;;;;;;;;;;;;;;6.61;100.00;98873.59;5346187;26;19999;-87